sensor_id;sensor_type;location;lat;lon;timestamp;temperature;humidity
30300;DHT22;17110;52.602;12.998;2024-02-15T00:00:18;9.50;99.90
30300;DHT22;17110;52.602;12.998;2024-02-15T00:05:19;9.50;99.90
30300;DHT22;17110;52.602;12.998;2024-02-15T00:10:20;9.40;99.90
30300;DHT22;17110;52.602;12.998;2024-02-15T00:15:22;9.40;99.90
30300;DHT22;17110;52.602;12.998;2024-02-15T00:20:22;9.50;99.90
30300;DHT22;17110;52.602;12.998;2024-02-15T00:25:23;9.40;99.90
30300;DHT22;17110;52.602;12.998;2024-02-15T00:30:25;9.50;99.90
30300;DHT22;17110;52.602;12.998;2024-02-15T00:35:26;9.50;99.90
30300;DHT22;17110;52.602;12.998;2024-02-15T00:40:27;9.50;99.90
30300;DHT22;17110;52.602;12.998;2024-02-15T00:45:29;9.50;99.90
30300;DHT22;17110;52.602;12.998;2024-02-15T00:50:30;9.50;99.90
30300;DHT22;17110;52.602;12.998;2024-02-15T00:55:30;9.50;99.90
30300;DHT22;17110;52.602;12.998;2024-02-15T01:00:32;9.40;99.90
30300;DHT22;17110;52.602;12.998;2024-02-15T01:05:33;9.50;99.90
30300;DHT22;17110;52.602;12.998;2024-02-15T01:10:34;9.50;99.90
30300;DHT22;17110;52.602;12.998;2024-02-15T01:15:36;9.50;99.90
30300;DHT22;17110;52.602;12.998;2024-02-15T01:20:37;9.50;99.90
30300;DHT22;17110;52.602;12.998;2024-02-15T01:25:37;9.50;99.90
30300;DHT22;17110;52.602;12.998;2024-02-15T01:30:40;9.60;99.90
30300;DHT22;17110;52.602;12.998;2024-02-15T01:35:40;9.50;99.90
30300;DHT22;17110;52.602;12.998;2024-02-15T01:40:41;9.60;99.90
30300;DHT22;17110;52.602;12.998;2024-02-15T01:45:43;9.50;99.90
30300;DHT22;17110;52.602;12.998;2024-02-15T01:50:44;9.50;99.90
30300;DHT22;17110;52.602;12.998;2024-02-15T01:55:45;9.50;99.90
30300;DHT22;17110;52.602;12.998;2024-02-15T02:00:48;9.50;99.90
30300;DHT22;17110;52.602;12.998;2024-02-15T02:05:49;9.60;99.90
30300;DHT22;17110;52.602;12.998;2024-02-15T02:10:51;9.60;99.90
30300;DHT22;17110;52.602;12.998;2024-02-15T02:15:53;9.60;99.90
30300;DHT22;17110;52.602;12.998;2024-02-15T02:20:54;9.60;99.90
30300;DHT22;17110;52.602;12.998;2024-02-15T02:25:56;9.60;99.90
30300;DHT22;17110;52.602;12.998;2024-02-15T02:30:57;9.60;99.90
30300;DHT22;17110;52.602;12.998;2024-02-15T02:35:58;9.60;99.90
30300;DHT22;17110;52.602;12.998;2024-02-15T02:41:00;9.60;99.90
30300;DHT22;17110;52.602;12.998;2024-02-15T02:46:01;9.60;99.90
30300;DHT22;17110;52.602;12.998;2024-02-15T02:51:02;9.60;99.90
30300;DHT22;17110;52.602;12.998;2024-02-15T02:56:04;9.60;99.90
30300;DHT22;17110;52.602;12.998;2024-02-15T03:01:05;9.60;99.90
30300;DHT22;17110;52.602;12.998;2024-02-15T03:06:06;9.60;99.90
30300;DHT22;17110;52.602;12.998;2024-02-15T03:11:08;9.60;99.90
30300;DHT22;17110;52.602;12.998;2024-02-15T03:16:08;9.60;99.90
30300;DHT22;17110;52.602;12.998;2024-02-15T03:21:09;9.60;99.90
30300;DHT22;17110;52.602;12.998;2024-02-15T03:26:11;9.70;99.90
30300;DHT22;17110;52.602;12.998;2024-02-15T03:31:12;9.70;99.90
30300;DHT22;17110;52.602;12.998;2024-02-15T03:36:13;9.70;99.90
30300;DHT22;17110;52.602;12.998;2024-02-15T03:41:15;9.70;99.90
30300;DHT22;17110;52.602;12.998;2024-02-15T03:46:15;9.60;99.90
30300;DHT22;17110;52.602;12.998;2024-02-15T03:51:16;9.60;99.90
30300;DHT22;17110;52.602;12.998;2024-02-15T03:56:19;9.70;99.90
30300;DHT22;17110;52.602;12.998;2024-02-15T04:01:20;9.70;99.90
30300;DHT22;17110;52.602;12.998;2024-02-15T04:06:20;9.70;99.90
30300;DHT22;17110;52.602;12.998;2024-02-15T04:11:22;9.70;99.90
30300;DHT22;17110;52.602;12.998;2024-02-15T04:16:23;9.70;99.90
30300;DHT22;17110;52.602;12.998;2024-02-15T04:21:24;9.70;99.90
30300;DHT22;17110;52.602;12.998;2024-02-15T04:26:26;9.70;99.90
30300;DHT22;17110;52.602;12.998;2024-02-15T04:31:27;9.70;99.90
30300;DHT22;17110;52.602;12.998;2024-02-15T04:36:27;9.70;99.90
30300;DHT22;17110;52.602;12.998;2024-02-15T04:41:29;9.80;99.90
30300;DHT22;17110;52.602;12.998;2024-02-15T04:46:30;9.80;99.90
30300;DHT22;17110;52.602;12.998;2024-02-15T04:51:31;9.90;99.90
30300;DHT22;17110;52.602;12.998;2024-02-15T04:56:33;9.90;99.90
30300;DHT22;17110;52.602;12.998;2024-02-15T05:01:34;9.80;99.90
30300;DHT22;17110;52.602;12.998;2024-02-15T05:06:34;9.80;99.90
30300;DHT22;17110;52.602;12.998;2024-02-15T05:11:37;9.80;99.90
30300;DHT22;17110;52.602;12.998;2024-02-15T05:16:38;9.80;99.90
30300;DHT22;17110;52.602;12.998;2024-02-15T05:21:39;9.80;99.90
30300;DHT22;17110;52.602;12.998;2024-02-15T05:26:41;9.70;99.90
30300;DHT22;17110;52.602;12.998;2024-02-15T05:31:42;9.80;99.90
30300;DHT22;17110;52.602;12.998;2024-02-15T05:36:42;9.80;99.90
30300;DHT22;17110;52.602;12.998;2024-02-15T05:41:45;9.90;99.90
30300;DHT22;17110;52.602;12.998;2024-02-15T05:46:45;9.90;99.90
30300;DHT22;17110;52.602;12.998;2024-02-15T05:51:46;9.80;99.90
30300;DHT22;17110;52.602;12.998;2024-02-15T05:56:48;9.90;99.90
30300;DHT22;17110;52.602;12.998;2024-02-15T06:01:49;9.80;99.90
30300;DHT22;17110;52.602;12.998;2024-02-15T06:06:49;9.80;99.90
30300;DHT22;17110;52.602;12.998;2024-02-15T06:11:51;9.90;99.90
30300;DHT22;17110;52.602;12.998;2024-02-15T06:16:52;9.90;99.90
30300;DHT22;17110;52.602;12.998;2024-02-15T06:21:53;9.90;99.90
30300;DHT22;17110;52.602;12.998;2024-02-15T06:26:55;9.90;99.90
30300;DHT22;17110;52.602;12.998;2024-02-15T06:31:56;10.00;99.90
30300;DHT22;17110;52.602;12.998;2024-02-15T06:36:57;10.00;99.90
30300;DHT22;17110;52.602;12.998;2024-02-15T06:41:59;10.00;99.90
30300;DHT22;17110;52.602;12.998;2024-02-15T06:47:00;10.00;99.90
30300;DHT22;17110;52.602;12.998;2024-02-15T06:52:01;10.10;99.90
30300;DHT22;17110;52.602;12.998;2024-02-15T06:57:04;10.20;99.90
30300;DHT22;17110;52.602;12.998;2024-02-15T07:02:05;10.20;99.90
30300;DHT22;17110;52.602;12.998;2024-02-15T07:07:06;10.20;99.90
30300;DHT22;17110;52.602;12.998;2024-02-15T07:12:08;10.20;99.90
30300;DHT22;17110;52.602;12.998;2024-02-15T07:17:09;10.20;99.90
30300;DHT22;17110;52.602;12.998;2024-02-15T07:22:09;10.30;99.90
30300;DHT22;17110;52.602;12.998;2024-02-15T07:27:12;10.30;99.90
30300;DHT22;17110;52.602;12.998;2024-02-15T07:32:12;10.40;99.90
30300;DHT22;17110;52.602;12.998;2024-02-15T07:37:13;10.40;99.90
30300;DHT22;17110;52.602;12.998;2024-02-15T07:42:15;10.50;99.90
30300;DHT22;17110;52.602;12.998;2024-02-15T07:47:16;10.40;99.90
30300;DHT22;17110;52.602;12.998;2024-02-15T07:52:16;10.50;99.90
30300;DHT22;17110;52.602;12.998;2024-02-15T07:57:19;10.60;99.90
30300;DHT22;17110;52.602;12.998;2024-02-15T08:02:19;10.70;99.90
30300;DHT22;17110;52.602;12.998;2024-02-15T08:07:20;10.70;99.90
30300;DHT22;17110;52.602;12.998;2024-02-15T08:12:22;10.80;99.90
30300;DHT22;17110;52.602;12.998;2024-02-15T08:17:23;10.80;99.90
30300;DHT22;17110;52.602;12.998;2024-02-15T08:22:24;10.80;99.90
30300;DHT22;17110;52.602;12.998;2024-02-15T08:27:26;10.90;99.90
30300;DHT22;17110;52.602;12.998;2024-02-15T08:32:26;10.90;99.90
30300;DHT22;17110;52.602;12.998;2024-02-15T08:37:27;11.10;99.90
30300;DHT22;17110;52.602;12.998;2024-02-15T08:42:29;11.10;99.90
30300;DHT22;17110;52.602;12.998;2024-02-15T08:47:30;11.20;99.90
30300;DHT22;17110;52.602;12.998;2024-02-15T08:52:31;11.30;99.90
30300;DHT22;17110;52.602;12.998;2024-02-15T08:57:33;11.50;99.90
30300;DHT22;17110;52.602;12.998;2024-02-15T09:02:34;11.60;99.90
30300;DHT22;17110;52.602;12.998;2024-02-15T09:07:34;11.60;99.90
30300;DHT22;17110;52.602;12.998;2024-02-15T09:12:36;11.60;99.90
30300;DHT22;17110;52.602;12.998;2024-02-15T09:17:37;11.80;99.90
30300;DHT22;17110;52.602;12.998;2024-02-15T09:22:38;11.90;99.90
30300;DHT22;17110;52.602;12.998;2024-02-15T09:27:40;11.80;99.90
30300;DHT22;17110;52.602;12.998;2024-02-15T09:32:42;11.90;99.90
30300;DHT22;17110;52.602;12.998;2024-02-15T09:37:44;11.90;99.90
30300;DHT22;17110;52.602;12.998;2024-02-15T09:42:47;12.20;99.90
30300;DHT22;17110;52.602;12.998;2024-02-15T09:47:48;12.40;99.90
30300;DHT22;17110;52.602;12.998;2024-02-15T09:52:50;12.50;99.90
30300;DHT22;17110;52.602;12.998;2024-02-15T09:57:52;12.50;99.90
30300;DHT22;17110;52.602;12.998;2024-02-15T10:02:53;12.60;99.90
30300;DHT22;17110;52.602;12.998;2024-02-15T10:07:54;12.50;99.90
30300;DHT22;17110;52.602;12.998;2024-02-15T10:12:56;12.70;99.90
30300;DHT22;17110;52.602;12.998;2024-02-15T10:17:57;12.80;99.90
30300;DHT22;17110;52.602;12.998;2024-02-15T10:23:11;12.80;99.90
30300;DHT22;17110;52.602;12.998;2024-02-15T10:28:20;13.00;99.90
30300;DHT22;17110;52.602;12.998;2024-02-15T10:33:27;13.20;99.90
30300;DHT22;17110;52.602;12.998;2024-02-15T10:38:28;13.30;99.90
30300;DHT22;17110;52.602;12.998;2024-02-15T10:43:30;13.30;99.90
30300;DHT22;17110;52.602;12.998;2024-02-15T10:48:32;13.10;99.90
30300;DHT22;17110;52.602;12.998;2024-02-15T10:53:35;13.10;99.90
30300;DHT22;17110;52.602;12.998;2024-02-15T10:58:47;13.30;99.90
30300;DHT22;17110;52.602;12.998;2024-02-15T11:03:51;13.40;99.90
30300;DHT22;17110;52.602;12.998;2024-02-15T11:08:53;13.40;99.90
30300;DHT22;17110;52.602;12.998;2024-02-15T11:14:25;13.30;99.90
30300;DHT22;17110;52.602;12.998;2024-02-15T11:19:43;13.20;99.90
30300;DHT22;17110;52.602;12.998;2024-02-15T11:24:48;13.30;99.90
30300;DHT22;17110;52.602;12.998;2024-02-15T11:29:51;13.30;99.90
30300;DHT22;17110;52.602;12.998;2024-02-15T11:35:02;13.10;99.90
30300;DHT22;17110;52.602;12.998;2024-02-15T11:40:04;13.00;99.90
30300;DHT22;17110;52.602;12.998;2024-02-15T11:45:07;12.90;99.90
30300;DHT22;17110;52.602;12.998;2024-02-15T11:50:09;12.90;99.90
30300;DHT22;17110;52.602;12.998;2024-02-15T11:55:10;13.00;99.90
30300;DHT22;17110;52.602;12.998;2024-02-15T12:00:20;13.00;99.90
30300;DHT22;17110;52.602;12.998;2024-02-15T12:05:21;13.00;99.90
30300;DHT22;17110;52.602;12.998;2024-02-15T12:10:22;13.00;99.90
30300;DHT22;17110;52.602;12.998;2024-02-15T12:15:24;13.10;99.90
30300;DHT22;17110;52.602;12.998;2024-02-15T12:20:24;13.30;99.90
30300;DHT22;17110;52.602;12.998;2024-02-15T12:25:25;13.40;99.90
30300;DHT22;17110;52.602;12.998;2024-02-15T12:30:33;13.60;99.90
30300;DHT22;17110;52.602;12.998;2024-02-15T12:35:33;13.80;99.90
30300;DHT22;17110;52.602;12.998;2024-02-15T12:40:35;14.00;99.90
30300;DHT22;17110;52.602;12.998;2024-02-15T12:45:39;13.90;99.90
30300;DHT22;17110;52.602;12.998;2024-02-15T12:50:40;13.90;99.90
30300;DHT22;17110;52.602;12.998;2024-02-15T12:55:40;13.80;99.90
30300;DHT22;17110;52.602;12.998;2024-02-15T13:00:43;14.00;99.90
30300;DHT22;17110;52.602;12.998;2024-02-15T13:05:43;13.70;99.90
30300;DHT22;17110;52.602;12.998;2024-02-15T13:10:44;13.70;99.90
30300;DHT22;17110;52.602;12.998;2024-02-15T13:15:46;13.50;99.90
30300;DHT22;17110;52.602;12.998;2024-02-15T13:20:47;13.40;99.90
30300;DHT22;17110;52.602;12.998;2024-02-15T13:25:48;13.50;99.90
30300;DHT22;17110;52.602;12.998;2024-02-15T13:30:51;13.60;99.90
30300;DHT22;17110;52.602;12.998;2024-02-15T13:35:52;13.70;99.90
30300;DHT22;17110;52.602;12.998;2024-02-15T13:40:52;13.80;99.90
30300;DHT22;17110;52.602;12.998;2024-02-15T13:45:54;14.00;99.90
30300;DHT22;17110;52.602;12.998;2024-02-15T13:50:55;14.00;99.90
30300;DHT22;17110;52.602;12.998;2024-02-15T13:55:56;13.80;99.90
30300;DHT22;17110;52.602;12.998;2024-02-15T14:00:58;13.70;99.90
30300;DHT22;17110;52.602;12.998;2024-02-15T14:05:59;13.70;99.90
30300;DHT22;17110;52.602;12.998;2024-02-15T14:11:00;13.70;99.90
30300;DHT22;17110;52.602;12.998;2024-02-15T14:16:03;13.70;99.90
30300;DHT22;17110;52.602;12.998;2024-02-15T14:21:05;13.60;99.90
30300;DHT22;17110;52.602;12.998;2024-02-15T14:26:05;13.60;99.90
30300;DHT22;17110;52.602;12.998;2024-02-15T14:31:09;13.70;99.90
30300;DHT22;17110;52.602;12.998;2024-02-15T14:36:10;13.60;99.90
30300;DHT22;17110;52.602;12.998;2024-02-15T14:41:11;13.60;99.90
30300;DHT22;17110;52.602;12.998;2024-02-15T14:46:13;13.60;99.90
30300;DHT22;17110;52.602;12.998;2024-02-15T14:51:15;13.50;99.90
30300;DHT22;17110;52.602;12.998;2024-02-15T14:56:16;13.50;99.90
30300;DHT22;17110;52.602;12.998;2024-02-15T15:01:18;13.50;99.90
30300;DHT22;17110;52.602;12.998;2024-02-15T15:06:19;13.40;99.90
30300;DHT22;17110;52.602;12.998;2024-02-15T15:11:19;13.30;99.90
30300;DHT22;17110;52.602;12.998;2024-02-15T15:16:21;13.20;99.90
30300;DHT22;17110;52.602;12.998;2024-02-15T15:21:22;13.20;99.90
30300;DHT22;17110;52.602;12.998;2024-02-15T15:26:23;13.10;99.90
30300;DHT22;17110;52.602;12.998;2024-02-15T15:31:25;13.20;99.90
30300;DHT22;17110;52.602;12.998;2024-02-15T15:36:26;13.10;99.90
30300;DHT22;17110;52.602;12.998;2024-02-15T15:41:27;13.10;99.90
30300;DHT22;17110;52.602;12.998;2024-02-15T15:46:29;13.00;99.90
30300;DHT22;17110;52.602;12.998;2024-02-15T15:51:29;13.00;99.90
30300;DHT22;17110;52.602;12.998;2024-02-15T15:56:32;13.00;99.90
30300;DHT22;17110;52.602;12.998;2024-02-15T16:01:34;12.90;99.90
30300;DHT22;17110;52.602;12.998;2024-02-15T16:06:35;12.80;99.90
30300;DHT22;17110;52.602;12.998;2024-02-15T16:11:36;12.80;99.90
30300;DHT22;17110;52.602;12.998;2024-02-15T16:16:38;12.80;99.90
30300;DHT22;17110;52.602;12.998;2024-02-15T16:21:39;12.70;99.90
30300;DHT22;17110;52.602;12.998;2024-02-15T16:26:40;12.70;99.90
30300;DHT22;17110;52.602;12.998;2024-02-15T16:31:42;12.60;99.90
30300;DHT22;17110;52.602;12.998;2024-02-15T16:36:43;12.60;99.90
30300;DHT22;17110;52.602;12.998;2024-02-15T16:41:46;12.60;99.90
30300;DHT22;17110;52.602;12.998;2024-02-15T16:46:48;12.70;99.90
30300;DHT22;17110;52.602;12.998;2024-02-15T16:51:49;12.60;99.90
30300;DHT22;17110;52.602;12.998;2024-02-15T16:56:49;12.50;99.90
30300;DHT22;17110;52.602;12.998;2024-02-15T17:01:52;12.50;99.90
30300;DHT22;17110;52.602;12.998;2024-02-15T17:06:53;12.50;99.90
30300;DHT22;17110;52.602;12.998;2024-02-15T17:11:54;12.40;99.90
30300;DHT22;17110;52.602;12.998;2024-02-15T17:16:56;12.40;99.90
30300;DHT22;17110;52.602;12.998;2024-02-15T17:21:56;12.40;99.90
30300;DHT22;17110;52.602;12.998;2024-02-15T17:26:57;12.40;99.90
30300;DHT22;17110;52.602;12.998;2024-02-15T17:31:59;12.30;99.90
30300;DHT22;17110;52.602;12.998;2024-02-15T17:37:00;12.20;99.90
30300;DHT22;17110;52.602;12.998;2024-02-15T17:42:01;12.20;99.90
30300;DHT22;17110;52.602;12.998;2024-02-15T17:47:03;12.10;99.90
30300;DHT22;17110;52.602;12.998;2024-02-15T17:52:05;12.10;99.90
30300;DHT22;17110;52.602;12.998;2024-02-15T17:57:05;12.00;99.90
30300;DHT22;17110;52.602;12.998;2024-02-15T18:02:07;12.00;99.90
30300;DHT22;17110;52.602;12.998;2024-02-15T18:07:08;12.00;99.90
30300;DHT22;17110;52.602;12.998;2024-02-15T18:12:10;12.00;99.90
30300;DHT22;17110;52.602;12.998;2024-02-15T18:17:12;12.00;99.90
30300;DHT22;17110;52.602;12.998;2024-02-15T18:22:13;12.00;99.90
30300;DHT22;17110;52.602;12.998;2024-02-15T18:27:14;12.00;99.90
30300;DHT22;17110;52.602;12.998;2024-02-15T18:32:16;12.00;99.90
30300;DHT22;17110;52.602;12.998;2024-02-15T18:37:16;12.10;99.90
30300;DHT22;17110;52.602;12.998;2024-02-15T18:42:17;12.10;99.90
30300;DHT22;17110;52.602;12.998;2024-02-15T18:47:19;12.10;99.90
30300;DHT22;17110;52.602;12.998;2024-02-15T18:52:20;12.00;99.90
30300;DHT22;17110;52.602;12.998;2024-02-15T18:57:21;12.00;99.90
30300;DHT22;17110;52.602;12.998;2024-02-15T19:02:23;12.00;99.90
30300;DHT22;17110;52.602;12.998;2024-02-15T19:07:23;12.00;99.90
30300;DHT22;17110;52.602;12.998;2024-02-15T19:12:24;11.90;99.90
30300;DHT22;17110;52.602;12.998;2024-02-15T19:17:26;11.90;99.90
30300;DHT22;17110;52.602;12.998;2024-02-15T19:22:27;11.90;99.90
30300;DHT22;17110;52.602;12.998;2024-02-15T19:27:28;12.00;99.90
30300;DHT22;17110;52.602;12.998;2024-02-15T19:32:30;12.00;99.90
30300;DHT22;17110;52.602;12.998;2024-02-15T19:37:31;12.00;99.90
30300;DHT22;17110;52.602;12.998;2024-02-15T19:42:31;12.00;99.90
30300;DHT22;17110;52.602;12.998;2024-02-15T19:47:34;12.00;99.90
30300;DHT22;17110;52.602;12.998;2024-02-15T19:52:34;12.00;99.90
30300;DHT22;17110;52.602;12.998;2024-02-15T19:57:35;12.00;99.90
30300;DHT22;17110;52.602;12.998;2024-02-15T20:02:37;12.00;99.90
30300;DHT22;17110;52.602;12.998;2024-02-15T20:07:38;12.00;99.90
30300;DHT22;17110;52.602;12.998;2024-02-15T20:12:39;12.00;99.90
30300;DHT22;17110;52.602;12.998;2024-02-15T20:17:41;12.10;99.90
30300;DHT22;17110;52.602;12.998;2024-02-15T20:22:42;12.20;99.90
30300;DHT22;17110;52.602;12.998;2024-02-15T20:27:43;12.20;99.90
30300;DHT22;17110;52.602;12.998;2024-02-15T20:32:45;12.30;99.90
30300;DHT22;17110;52.602;12.998;2024-02-15T20:37:45;12.20;99.90
30300;DHT22;17110;52.602;12.998;2024-02-15T20:42:46;12.10;99.90
30300;DHT22;17110;52.602;12.998;2024-02-15T20:47:48;12.10;99.90
30300;DHT22;17110;52.602;12.998;2024-02-15T20:52:49;12.00;99.90
30300;DHT22;17110;52.602;12.998;2024-02-15T20:57:50;12.00;99.90
30300;DHT22;17110;52.602;12.998;2024-02-15T21:02:52;12.00;99.90
30300;DHT22;17110;52.602;12.998;2024-02-15T21:07:53;11.90;99.90
30300;DHT22;17110;52.602;12.998;2024-02-15T21:12:54;11.90;99.90
30300;DHT22;17110;52.602;12.998;2024-02-15T21:17:56;11.80;99.90
30300;DHT22;17110;52.602;12.998;2024-02-15T21:22:57;11.70;99.90
30300;DHT22;17110;52.602;12.998;2024-02-15T21:27:57;11.60;99.90
30300;DHT22;17110;52.602;12.998;2024-02-15T21:32:59;11.60;99.90
30300;DHT22;17110;52.602;12.998;2024-02-15T21:38:00;11.60;99.90
30300;DHT22;17110;52.602;12.998;2024-02-15T21:43:01;11.60;99.90
30300;DHT22;17110;52.602;12.998;2024-02-15T21:48:04;11.50;99.90
30300;DHT22;17110;52.602;12.998;2024-02-15T21:53:04;11.60;99.90
30300;DHT22;17110;52.602;12.998;2024-02-15T21:58:05;11.60;99.90
30300;DHT22;17110;52.602;12.998;2024-02-15T22:03:07;11.50;99.90
30300;DHT22;17110;52.602;12.998;2024-02-15T22:08:09;11.50;99.90
30300;DHT22;17110;52.602;12.998;2024-02-15T22:13:10;11.50;99.90
30300;DHT22;17110;52.602;12.998;2024-02-15T22:18:12;11.50;99.90
30300;DHT22;17110;52.602;12.998;2024-02-15T22:23:13;11.40;99.90
30300;DHT22;17110;52.602;12.998;2024-02-15T22:28:14;11.30;99.90
30300;DHT22;17110;52.602;12.998;2024-02-15T22:33:16;11.10;99.90
30300;DHT22;17110;52.602;12.998;2024-02-15T22:38:17;11.00;99.90
30300;DHT22;17110;52.602;12.998;2024-02-15T22:43:18;10.80;99.90
30300;DHT22;17110;52.602;12.998;2024-02-15T22:48:20;10.70;99.90
30300;DHT22;17110;52.602;12.998;2024-02-15T22:53:20;10.60;99.90
30300;DHT22;17110;52.602;12.998;2024-02-15T22:58:23;10.40;99.90
30300;DHT22;17110;52.602;12.998;2024-02-15T23:03:25;10.40;99.90
30300;DHT22;17110;52.602;12.998;2024-02-15T23:08:26;10.30;99.90
30300;DHT22;17110;52.602;12.998;2024-02-15T23:13:27;10.30;99.90
30300;DHT22;17110;52.602;12.998;2024-02-15T23:18:29;10.20;99.90
30300;DHT22;17110;52.602;12.998;2024-02-15T23:23:30;10.20;99.90
30300;DHT22;17110;52.602;12.998;2024-02-15T23:28:31;10.20;99.90
30300;DHT22;17110;52.602;12.998;2024-02-15T23:33:33;10.10;99.90
30300;DHT22;17110;52.602;12.998;2024-02-15T23:38:34;10.10;99.90
30300;DHT22;17110;52.602;12.998;2024-02-15T23:43:35;10.10;99.90
30300;DHT22;17110;52.602;12.998;2024-02-15T23:48:37;10.10;99.90
30300;DHT22;17110;52.602;12.998;2024-02-15T23:53:38;10.00;99.90
30300;DHT22;17110;52.602;12.998;2024-02-15T23:58:39;10.10;99.90
